createdAt,value
2023-05-03T00:00:27.577Z,2.67
2023-05-03T00:03:15.085Z,1.97
2023-05-03T00:06:15.526Z,2.37
2023-05-03T00:09:02.983Z,1.80
2023-05-03T00:11:50.501Z,2.57
2023-05-03T00:14:37.860Z,2.43
2023-05-03T00:17:25.707Z,1.73
2023-05-03T00:20:13.127Z,2.10
2023-05-03T00:23:02.068Z,2.37
2023-05-03T00:25:56.386Z,2.10
2023-05-03T00:28:43.721Z,2.47
2023-05-03T00:31:31.151Z,2.10
2023-05-03T00:34:18.550Z,2.53
2023-05-03T00:37:06.302Z,2.40
2023-05-03T00:39:54.090Z,2.30
2023-05-03T00:42:41.453Z,2.00
2023-05-03T00:45:30.420Z,2.50
2023-05-03T00:48:18.892Z,2.33
2023-05-03T00:51:06.905Z,2.20
2023-05-03T00:53:54.330Z,1.90
2023-05-03T00:56:51.233Z,2.07
2023-05-03T00:59:39.599Z,2.20
2023-05-03T01:02:28.201Z,2.37
2023-05-03T01:05:16.507Z,2.23
2023-05-03T01:08:11.948Z,2.13
2023-05-03T01:10:59.282Z,2.10
2023-05-03T01:13:46.640Z,2.37
2023-05-03T01:16:54.561Z,2.40
2023-05-03T01:19:41.884Z,2.20
2023-05-03T01:22:51.266Z,2.30
2023-05-03T01:25:38.643Z,2.97
2023-05-03T01:28:26.217Z,2.20
2023-05-03T01:31:16.824Z,2.50
2023-05-03T01:34:16.547Z,2.70
2023-05-03T01:37:05.266Z,2.50
2023-05-03T01:40:04.377Z,2.40
2023-05-03T01:42:52.966Z,2.53
2023-05-03T01:45:41.265Z,2.30
2023-05-03T01:48:28.664Z,2.50
2023-05-03T01:51:16.043Z,2.53
2023-05-03T01:54:03.509Z,2.53
2023-05-03T01:56:50.861Z,2.27
2023-05-03T01:59:38.339Z,2.00
2023-05-03T02:02:26.092Z,2.50
2023-05-03T02:05:13.598Z,2.70
2023-05-03T02:08:00.973Z,2.63
2023-05-03T02:10:48.341Z,2.40
2023-05-03T02:13:35.987Z,2.70
2023-05-03T02:16:23.380Z,2.50
2023-05-03T02:19:11.076Z,2.60
2023-05-03T02:21:58.457Z,2.20
2023-05-03T02:24:46.174Z,2.90
2023-05-03T02:27:33.607Z,2.30
2023-05-03T02:30:21.379Z,2.97
2023-05-03T02:33:08.819Z,2.40
2023-05-03T02:35:56.308Z,2.97
2023-05-03T02:38:43.693Z,2.63
2023-05-03T02:41:31.619Z,2.30
2023-05-03T02:44:19.030Z,3.23
2023-05-03T02:47:06.366Z,2.80
2023-05-03T02:49:53.856Z,2.43
2023-05-03T02:53:00.261Z,2.40
2023-05-03T02:55:47.916Z,2.43
2023-05-03T02:58:35.446Z,3.40
2023-05-03T03:01:22.854Z,2.60
2023-05-03T03:04:10.528Z,2.70
2023-05-03T03:06:58.292Z,2.40
2023-05-03T03:09:45.713Z,2.27
2023-05-03T03:12:33.918Z,2.67
2023-05-03T03:15:22.037Z,2.87
2023-05-03T03:18:09.502Z,2.80
2023-05-03T03:20:56.926Z,2.93
2023-05-03T03:23:44.334Z,2.50
2023-05-03T03:26:31.704Z,2.60
2023-05-03T03:29:19.061Z,2.70
2023-05-03T03:32:07.157Z,3.13
2023-05-03T03:34:54.581Z,2.57
2023-05-03T03:37:41.926Z,2.90
2023-05-03T03:40:29.269Z,2.40
2023-05-03T03:43:16.685Z,2.30
2023-05-03T03:46:04.061Z,2.50
2023-05-03T03:48:51.478Z,2.47
2023-05-03T03:51:39.697Z,2.70
2023-05-03T03:54:27.141Z,2.43
2023-05-03T03:57:14.521Z,2.77
2023-05-03T04:00:11.543Z,2.53
2023-05-03T04:02:59.047Z,2.57
2023-05-03T04:05:46.613Z,2.97
2023-05-03T04:08:33.955Z,2.90
2023-05-03T04:11:21.510Z,3.50
2023-05-03T04:14:08.881Z,2.90
2023-05-03T04:16:56.499Z,3.10
2023-05-03T04:19:44.237Z,3.10
2023-05-03T04:22:32.494Z,2.70
2023-05-03T04:25:19.957Z,2.70
2023-05-03T04:28:07.409Z,2.80
2023-05-03T04:30:54.826Z,2.77
2023-05-03T04:33:42.181Z,2.77
2023-05-03T04:36:29.895Z,2.83
2023-05-03T04:39:17.328Z,3.10
2023-05-03T04:42:05.010Z,3.40
2023-05-03T04:44:52.367Z,3.10
2023-05-03T04:47:40.186Z,2.60
2023-05-03T04:50:27.554Z,2.80
2023-05-03T04:53:15.545Z,2.40
2023-05-03T04:56:02.913Z,3.35
2023-05-03T04:58:50.453Z,2.47
2023-05-03T05:01:37.831Z,2.60
2023-05-03T05:04:25.300Z,2.30
2023-05-03T05:07:13.124Z,2.70
2023-05-03T05:10:00.598Z,2.90
2023-05-03T05:12:48.043Z,2.83
2023-05-03T05:15:35.703Z,2.87
2023-05-03T05:18:23.069Z,2.67
2023-05-03T05:21:10.523Z,2.60
2023-05-03T05:23:57.890Z,2.60
2023-05-03T05:26:45.388Z,2.87
2023-05-03T05:29:32.732Z,2.70
2023-05-03T05:32:20.102Z,2.30
2023-05-03T05:35:07.686Z,2.63
2023-05-03T05:37:55.280Z,2.53
2023-05-03T05:40:42.683Z,2.60
2023-05-03T05:43:30.039Z,2.90
2023-05-03T05:46:17.521Z,2.97
2023-05-03T05:49:04.862Z,2.57
2023-05-03T05:51:52.237Z,2.17
2023-05-03T05:54:39.831Z,2.93
2023-05-03T05:57:27.268Z,2.90
2023-05-03T06:00:15.313Z,3.30
2023-05-03T06:03:02.803Z,2.50
2023-05-03T06:05:50.278Z,2.33
2023-05-03T06:08:37.678Z,2.40
2023-05-03T06:11:25.070Z,2.37
2023-05-03T06:14:12.449Z,2.57
2023-05-03T06:17:00.590Z,1.90
2023-05-03T06:19:49.285Z,1.60
2023-05-03T06:22:36.658Z,1.70
2023-05-03T06:25:24.173Z,1.70
2023-05-03T06:28:11.537Z,1.70
2023-05-03T06:30:59.010Z,1.60
2023-05-03T06:33:46.988Z,1.90
2023-05-03T06:36:34.320Z,1.47
2023-05-03T06:39:21.692Z,1.50
2023-05-03T06:42:09.107Z,1.60
2023-05-03T06:44:56.462Z,2.00
2023-05-03T06:47:43.848Z,1.63
2023-05-03T06:50:31.197Z,1.67
2023-05-03T06:53:18.627Z,1.70
2023-05-03T06:56:06.095Z,1.80
2023-05-03T06:58:53.745Z,2.00
2023-05-03T07:01:41.179Z,1.70
2023-05-03T07:04:30.179Z,1.73
2023-05-03T07:07:17.661Z,2.00
2023-05-03T07:10:05.576Z,1.90
2023-05-03T07:12:53.100Z,1.90
2023-05-03T07:15:40.686Z,1.60
2023-05-03T07:18:28.122Z,1.77
2023-05-03T07:21:15.651Z,1.52
2023-05-03T07:24:03.334Z,1.60
2023-05-03T07:26:50.906Z,1.70
2023-05-03T07:29:38.347Z,2.10
2023-05-03T07:32:26.045Z,1.87
2023-05-03T07:35:13.598Z,1.87
2023-05-03T07:38:01.188Z,1.80
2023-05-03T07:40:48.702Z,1.87
2023-05-03T07:43:36.112Z,1.90
2023-05-03T07:46:23.588Z,2.00
2023-05-03T07:49:11.111Z,2.33
2023-05-03T07:51:59.391Z,1.90
2023-05-03T07:54:47.031Z,1.90
2023-05-03T07:57:34.514Z,1.97
2023-05-03T08:00:22.091Z,2.10
2023-05-03T08:03:09.592Z,2.10
2023-05-03T08:05:57.180Z,2.17
2023-05-03T08:08:44.858Z,2.03
2023-05-03T08:11:32.426Z,2.00
2023-05-03T08:14:19.772Z,2.20
2023-05-03T08:17:07.117Z,1.90
2023-05-03T08:19:56.427Z,1.77
2023-05-03T08:22:45.162Z,2.10
2023-05-03T08:25:32.663Z,2.17
2023-05-03T08:28:20.036Z,2.13
2023-05-03T08:31:07.778Z,2.07
2023-05-03T08:33:55.420Z,2.10
2023-05-03T08:36:42.782Z,2.50
2023-05-03T08:39:31.599Z,2.00
2023-05-03T08:42:19.112Z,2.00
2023-05-03T08:45:08.306Z,1.60
2023-05-03T08:47:55.765Z,1.87
2023-05-03T08:50:43.157Z,2.00
2023-05-03T08:53:30.893Z,2.20
2023-05-03T08:56:26.750Z,1.80
2023-05-03T08:59:16.996Z,1.77
2023-05-03T09:02:04.514Z,2.00
2023-05-03T09:04:52.292Z,2.07
2023-05-03T09:07:39.659Z,1.93
2023-05-03T09:10:26.994Z,1.70
2023-05-03T09:13:14.398Z,1.80
2023-05-03T09:16:02.830Z,1.70
2023-05-03T09:18:59.109Z,2.17
2023-05-03T09:21:47.567Z,2.13
2023-05-03T09:24:34.956Z,1.77
2023-05-03T09:27:22.583Z,1.90
2023-05-03T09:30:19.754Z,1.70
2023-05-03T09:33:07.887Z,1.80
2023-05-03T09:35:59.102Z,2.20
2023-05-03T09:38:46.473Z,1.80
2023-05-03T09:41:33.831Z,1.80
2023-05-03T09:44:21.442Z,2.00
2023-05-03T09:47:09.058Z,1.87
2023-05-03T09:49:56.544Z,2.07
2023-05-03T09:52:44.014Z,2.03
2023-05-03T09:55:41.051Z,2.10
2023-05-03T09:58:30.810Z,2.03
2023-05-03T10:01:18.981Z,1.60
2023-05-03T10:04:07.531Z,2.03
2023-05-03T10:06:59.577Z,1.60
2023-05-03T10:09:50.023Z,1.73
2023-05-03T10:12:37.575Z,1.80
2023-05-03T10:15:25.887Z,1.73
2023-05-03T10:18:15.689Z,1.60
2023-05-03T10:21:07.579Z,2.20
2023-05-03T10:24:11.430Z,1.93
2023-05-03T10:26:59.252Z,1.80
2023-05-03T10:29:48.557Z,2.00
2023-05-03T10:32:39.677Z,1.83
2023-05-03T10:35:28.166Z,2.23
2023-05-03T10:38:15.588Z,2.17
2023-05-03T10:41:03.944Z,1.90
2023-05-03T10:43:51.766Z,1.90
2023-05-03T10:46:39.441Z,1.90
2023-05-03T10:49:27.201Z,1.93
2023-05-03T10:52:33.202Z,2.33
2023-05-03T10:55:21.930Z,1.90
2023-05-03T10:58:11.317Z,1.90
2023-05-03T11:00:59.518Z,1.90
2023-05-03T11:04:02.337Z,1.80
2023-05-03T11:06:51.808Z,1.80
2023-05-03T11:09:39.426Z,1.90
2023-05-03T11:12:26.789Z,1.90
2023-05-03T11:15:14.140Z,2.03
2023-05-03T11:18:02.140Z,1.73
2023-05-03T11:20:50.087Z,2.20
2023-05-03T11:23:38.920Z,1.70
2023-05-03T11:26:27.471Z,1.93
2023-05-03T11:29:17.014Z,2.00
2023-05-03T11:32:04.468Z,2.00
2023-05-03T11:34:51.982Z,1.97
2023-05-03T11:37:39.353Z,1.93
2023-05-03T11:40:26.799Z,1.60
2023-05-03T11:43:14.351Z,2.30
2023-05-03T11:46:01.791Z,2.33
2023-05-03T11:48:49.343Z,2.00
2023-05-03T11:51:36.705Z,2.00
2023-05-03T11:54:26.875Z,2.03
2023-05-03T11:57:16.208Z,1.80
2023-05-03T12:00:20.267Z,2.03
2023-05-03T12:03:08.728Z,2.13
2023-05-03T12:05:57.285Z,1.90
2023-05-03T12:08:45.467Z,2.03
2023-05-03T12:11:42.962Z,2.20
2023-05-03T12:14:50.876Z,2.13
2023-05-03T12:17:42.808Z,1.90
2023-05-03T12:23:22.098Z,1.93
2023-05-03T12:26:10.259Z,2.30
2023-05-03T12:28:57.845Z,1.95
2023-05-03T12:31:49.015Z,2.05
2023-05-03T12:34:38.647Z,2.15
2023-05-03T12:37:28.500Z,2.20
2023-05-03T12:40:32.573Z,1.95
2023-05-03T12:43:22.147Z,2.20
2023-05-03T12:46:28.099Z,1.98
2023-05-03T12:49:17.127Z,2.00
2023-05-03T12:52:35.303Z,1.85
2023-05-03T12:55:17.851Z,2.15
2023-05-03T12:58:40.221Z,2.10
2023-05-03T13:06:59.082Z,2.13
2023-05-03T13:12:55.288Z,2.20
2023-05-03T13:15:43.517Z,2.00
2023-05-03T13:18:31.882Z,2.00
2023-05-03T13:21:19.295Z,1.98
2023-05-03T13:24:06.826Z,1.97
2023-05-03T13:26:54.617Z,2.03
2023-05-03T13:29:42.166Z,2.07
2023-05-03T13:32:30.303Z,2.20
2023-05-03T13:35:18.241Z,1.80
2023-05-03T13:38:05.624Z,2.10
2023-05-03T13:40:53.221Z,1.77
2023-05-03T13:43:41.987Z,2.35
2023-05-03T13:46:29.409Z,2.20
2023-05-03T13:49:16.802Z,2.00
2023-05-03T13:52:04.733Z,1.92
2023-05-03T13:54:52.164Z,1.92
2023-05-03T13:57:39.539Z,2.05
2023-05-03T14:00:26.944Z,2.40
2023-05-03T14:03:14.964Z,2.03
2023-05-03T14:06:03.422Z,2.10
2023-05-03T14:08:51.233Z,2.28
2023-05-03T14:11:39.437Z,2.15
2023-05-03T14:14:27.416Z,2.00
2023-05-03T14:17:14.862Z,1.98
2023-05-03T14:20:02.610Z,1.92
2023-05-03T14:22:50.639Z,2.22
2023-05-03T14:25:37.960Z,1.95
2023-05-03T14:28:25.785Z,2.38
2023-05-03T14:31:13.265Z,2.50
2023-05-03T14:34:01.811Z,2.57
2023-05-03T14:36:49.144Z,2.15
2023-05-03T14:39:36.628Z,2.33
2023-05-03T14:42:24.062Z,2.38
2023-05-03T14:45:14.663Z,2.45
2023-05-03T14:48:02.487Z,2.15
2023-05-03T14:50:54.125Z,2.35
2023-05-03T14:53:41.459Z,2.30
2023-05-03T14:56:31.551Z,2.20
2023-05-03T14:59:18.934Z,2.27
2023-05-03T15:02:06.261Z,2.00
2023-05-03T15:04:54.065Z,2.10
2023-05-03T15:07:41.422Z,2.13
2023-05-03T15:10:28.813Z,2.63
2023-05-03T15:13:17.549Z,2.13
2023-05-03T15:16:05.201Z,2.17
2023-05-03T15:18:52.551Z,2.40
2023-05-03T15:21:50.181Z,2.67
2023-05-03T15:24:37.515Z,2.27
2023-05-03T15:27:24.887Z,2.23
2023-05-03T15:30:12.583Z,2.40
2023-05-03T15:33:00.918Z,2.20
2023-05-03T15:35:48.337Z,2.30
2023-05-03T15:38:35.822Z,2.20
2023-05-03T15:41:23.231Z,2.30
2023-05-03T15:44:10.617Z,2.33
2023-05-03T15:46:57.956Z,2.30
2023-05-03T15:49:45.360Z,2.40
2023-05-03T15:52:32.980Z,2.07
2023-05-03T15:55:20.320Z,2.57
2023-05-03T15:58:07.720Z,2.13
2023-05-03T16:00:56.839Z,2.13
2023-05-03T16:03:44.390Z,2.60
2023-05-03T16:06:31.718Z,2.10
2023-05-03T16:09:19.524Z,2.20
2023-05-03T16:12:07.193Z,2.30
2023-05-03T16:14:55.475Z,2.20
2023-05-03T16:17:42.846Z,2.03
2023-05-03T16:20:30.461Z,2.50
2023-05-03T16:23:17.836Z,2.30
2023-05-03T16:26:13.187Z,2.37
2023-05-03T16:29:01.162Z,2.23
2023-05-03T16:31:49.450Z,2.23
2023-05-03T16:34:37.547Z,2.63
2023-05-03T16:37:24.877Z,2.40
2023-05-03T16:40:12.265Z,2.40
2023-05-03T16:42:59.570Z,2.60
2023-05-03T16:45:55.305Z,2.27
2023-05-03T16:48:42.674Z,2.30
2023-05-03T16:51:30.112Z,2.70
2023-05-03T16:54:17.482Z,2.33
2023-05-03T16:57:05.201Z,2.40
2023-05-03T16:59:52.844Z,2.50
2023-05-03T17:02:40.941Z,2.40
2023-05-03T17:05:32.767Z,2.33
2023-05-03T17:08:20.302Z,2.23
2023-05-03T17:11:13.682Z,2.50
2023-05-03T17:14:01.047Z,2.37
2023-05-03T17:16:49.046Z,2.20
2023-05-03T17:19:36.494Z,2.87
2023-05-03T17:22:23.893Z,2.37
2023-05-03T17:25:11.600Z,2.30
2023-05-03T17:27:58.980Z,2.17
2023-05-03T17:30:46.367Z,2.67
2023-05-03T17:33:34.597Z,2.20
2023-05-03T17:36:22.595Z,2.50
2023-05-03T17:39:10.372Z,2.50
2023-05-03T17:41:57.887Z,2.70
2023-05-03T17:44:45.415Z,2.63
2023-05-03T17:47:32.825Z,2.50
2023-05-03T17:50:20.272Z,2.53
2023-05-03T17:53:08.319Z,2.60
2023-05-03T17:55:55.936Z,2.20
2023-05-03T17:58:45.392Z,2.33
2023-05-03T18:01:32.720Z,2.40
2023-05-03T18:04:20.136Z,2.60
2023-05-03T18:07:07.471Z,3.13
2023-05-03T18:09:55.083Z,2.73
2023-05-03T18:12:42.943Z,2.67
2023-05-03T18:15:30.972Z,2.80
2023-05-03T18:18:18.537Z,2.17
2023-05-03T18:21:06.230Z,2.50
2023-05-03T18:23:53.624Z,2.67
2023-05-03T18:26:41.000Z,2.20
2023-05-03T18:29:28.389Z,2.57
2023-05-03T18:32:16.078Z,2.40
2023-05-03T18:35:03.720Z,2.13
2023-05-03T18:37:52.788Z,2.60
2023-05-03T18:40:40.256Z,2.20
2023-05-03T18:43:27.645Z,2.50
2023-05-03T18:46:18.842Z,2.47
2023-05-03T18:49:06.227Z,2.67
2023-05-03T18:51:53.558Z,2.30
2023-05-03T18:54:40.951Z,2.50
2023-05-03T18:57:28.711Z,2.47
2023-05-03T19:00:17.942Z,2.40
2023-05-03T19:03:05.886Z,2.60
2023-05-03T19:05:53.283Z,2.50
2023-05-03T19:08:44.433Z,2.50
2023-05-03T19:11:32.138Z,2.70
2023-05-03T19:14:19.469Z,2.40
2023-05-03T19:17:06.861Z,2.50
2023-05-03T19:19:54.382Z,2.70
2023-05-03T19:22:41.780Z,2.60
2023-05-03T19:25:29.106Z,2.43
2023-05-03T19:28:16.558Z,2.47
2023-05-03T19:31:04.552Z,2.70
2023-05-03T19:33:52.256Z,2.73
2023-05-03T19:36:39.720Z,2.40
2023-05-03T19:39:27.042Z,3.03
2023-05-03T19:42:14.370Z,2.23
2023-05-03T19:45:03.450Z,2.07
2023-05-03T19:47:50.944Z,2.60
2023-05-03T19:50:38.294Z,2.53
2023-05-03T19:53:26.044Z,2.60
2023-05-03T19:56:14.875Z,3.00
2023-05-03T19:59:02.231Z,3.13
2023-05-03T20:01:49.596Z,2.30
2023-05-03T20:04:37.136Z,2.73
2023-05-03T20:07:24.528Z,2.73
2023-05-03T20:10:11.877Z,2.47
2023-05-03T20:12:59.286Z,2.17
2023-05-03T20:15:46.632Z,2.70
2023-05-03T20:18:34.027Z,2.77
2023-05-03T20:21:21.426Z,2.57
2023-05-03T20:24:10.725Z,2.70
2023-05-03T20:26:58.170Z,2.70
2023-05-03T20:29:45.508Z,3.23
2023-05-03T20:32:33.002Z,3.07
2023-05-03T20:35:20.372Z,3.43
2023-05-03T20:38:07.732Z,2.60
2023-05-03T20:40:55.313Z,2.63
2023-05-03T20:43:42.632Z,2.60
2023-05-03T20:46:30.149Z,2.67
2023-05-03T20:49:17.501Z,2.70
2023-05-03T20:52:04.959Z,2.70
2023-05-03T20:54:52.525Z,3.20
2023-05-03T20:57:40.559Z,2.50
2023-05-03T21:00:28.780Z,2.60
2023-05-03T21:03:16.312Z,3.10
2023-05-03T21:06:05.451Z,3.33
2023-05-03T21:08:52.806Z,3.23
2023-05-03T21:11:42.175Z,3.37
2023-05-03T21:14:29.557Z,3.50
2023-05-03T21:17:16.853Z,3.40
2023-05-03T21:20:05.301Z,3.00
2023-05-03T21:22:52.878Z,3.53
2023-05-03T21:25:40.292Z,4.30
2023-05-03T21:28:27.792Z,4.80
2023-05-03T21:31:15.509Z,4.43
2023-05-03T21:34:03.961Z,4.57
2023-05-03T21:36:51.309Z,4.57
2023-05-03T21:39:38.631Z,4.00
2023-05-03T21:42:25.953Z,4.17
2023-05-03T21:45:14.750Z,3.97
2023-05-03T21:48:02.264Z,3.13
2023-05-03T21:50:49.672Z,2.90
2023-05-03T21:53:37.199Z,3.40
2023-05-03T21:56:24.517Z,3.03
2023-05-03T21:59:11.860Z,3.00
2023-05-03T22:01:59.537Z,2.80
2023-05-03T22:04:47.927Z,2.53
2023-05-03T22:07:35.427Z,2.70
2023-05-03T22:10:22.775Z,2.43
2023-05-03T22:13:10.193Z,2.80
2023-05-03T22:16:03.433Z,2.93
2023-05-03T22:18:50.760Z,3.20
2023-05-03T22:21:38.151Z,2.83
2023-05-03T22:24:26.566Z,2.50
2023-05-03T22:27:13.926Z,2.83
2023-05-03T22:30:01.379Z,3.33
2023-05-03T22:32:49.221Z,3.10
2023-05-03T22:35:36.623Z,2.87
2023-05-03T22:38:23.956Z,2.97
2023-05-03T22:41:11.759Z,3.33
2023-05-03T22:43:59.116Z,3.13
2023-05-03T22:46:46.812Z,2.80
2023-05-03T22:49:34.193Z,3.00
2023-05-03T22:52:21.555Z,3.37
2023-05-03T22:55:09.213Z,2.93
2023-05-03T22:57:56.681Z,3.40
2023-05-03T23:00:44.167Z,2.97
2023-05-03T23:03:31.666Z,2.93
2023-05-03T23:06:19.085Z,3.10
2023-05-03T23:09:06.463Z,3.43
2023-05-03T23:11:55.020Z,3.60
2023-05-03T23:14:45.586Z,3.10
2023-05-03T23:17:33.620Z,2.90
2023-05-03T23:20:22.025Z,3.00
2023-05-03T23:23:09.416Z,3.33
2023-05-03T23:25:56.750Z,2.83
2023-05-03T23:28:44.520Z,2.70
2023-05-03T23:31:33.152Z,2.63
2023-05-03T23:34:22.892Z,2.70
2023-05-03T23:37:10.218Z,3.60
2023-05-03T23:39:58.107Z,2.30
2023-05-03T23:42:46.597Z,3.30
2023-05-03T23:45:33.939Z,2.70
2023-05-03T23:48:21.251Z,2.90
2023-05-03T23:51:08.571Z,2.60
2023-05-03T23:53:55.902Z,2.57
2023-05-03T23:56:43.265Z,2.90
2023-05-03T23:59:30.603Z,2.67
